createdAt,value
2023-04-10T00:00:21.743Z,9.9
2023-04-10T00:05:22.794Z,10.0
2023-04-10T00:10:28.841Z,10.1
2023-04-10T00:15:17.941Z,9.9
2023-04-10T00:20:24.985Z,10.3
2023-04-10T00:25:29.970Z,9.9
2023-04-10T00:30:19.120Z,10.2
2023-04-10T00:35:25.176Z,9.5
2023-04-10T00:40:30.702Z,9.7
2023-04-10T00:45:19.462Z,10.4
2023-04-10T00:50:25.526Z,9.7
2023-04-10T00:55:31.472Z,9.4
2023-04-10T01:00:22.133Z,9.7
2023-04-10T01:05:26.416Z,9.9
2023-04-10T01:10:32.620Z,10.3
2023-04-10T01:15:21.525Z,10.4
2023-04-10T01:20:27.748Z,10.2
2023-04-10T01:25:16.790Z,10.2
2023-04-10T01:30:23.099Z,11.1
2023-04-10T01:35:28.881Z,10.2
2023-04-10T01:40:18.552Z,10.8
2023-04-10T01:45:23.729Z,10.9
2023-04-10T01:50:29.764Z,10.9
2023-04-10T01:55:18.932Z,11.5
2023-04-10T02:00:28.755Z,10.7
2023-04-10T02:05:31.178Z,11.2
2023-04-10T02:10:20.246Z,10.8
2023-04-10T02:15:26.156Z,10.8
2023-04-10T02:20:32.256Z,10.1
2023-04-10T02:25:21.285Z,10.7
2023-04-10T02:30:27.314Z,10.6
2023-04-10T02:35:33.494Z,10.9
2023-04-10T02:40:23.360Z,10.3
2023-04-10T02:45:28.403Z,10.9
2023-04-10T02:50:17.320Z,11.1
2023-04-10T02:55:23.371Z,10.8
2023-04-10T03:00:29.533Z,20.5
2023-04-10T03:05:18.573Z,24.6
2023-04-10T03:10:24.793Z,12.5
2023-04-10T03:15:30.796Z,11.5
2023-04-10T03:20:19.712Z,12.8
2023-04-10T03:25:25.803Z,12.5
2023-04-10T03:30:31.953Z,12.3
2023-04-10T03:35:20.869Z,11.8
2023-04-10T03:40:27.020Z,12.3
2023-04-10T03:45:32.934Z,11.9
2023-04-10T03:50:22.105Z,11.7
2023-04-10T03:55:28.216Z,12.7
2023-04-10T04:00:22.829Z,13.1
2023-04-10T04:05:23.074Z,12.9
2023-04-10T04:10:29.057Z,12.5
2023-04-10T04:15:18.184Z,14.9
2023-04-10T04:20:25.899Z,19.0
2023-04-10T04:25:30.217Z,16.2
2023-04-10T04:30:19.404Z,14.2
2023-04-10T04:35:25.481Z,12.4
2023-04-10T04:40:30.553Z,12.4
2023-04-10T04:45:19.599Z,12.7
2023-04-10T04:50:25.930Z,12.0
2023-04-10T04:55:31.879Z,11.7
2023-04-10T05:00:22.491Z,12.3
2023-04-10T05:05:26.864Z,12.0
2023-04-10T05:10:33.105Z,10.8
2023-04-10T05:15:21.851Z,11.0
2023-04-10T05:20:28.102Z,10.4
2023-04-10T05:25:17.111Z,10.4
2023-04-10T05:30:23.256Z,9.1
2023-04-10T05:35:29.248Z,9.1
2023-04-10T05:40:17.887Z,11.9
2023-04-10T05:45:23.527Z,11.2
2023-04-10T05:50:30.660Z,9.5
2023-04-10T05:55:18.960Z,8.6
2023-04-10T06:00:28.531Z,10.4
2023-04-10T06:05:30.477Z,9.6
2023-04-10T06:10:19.650Z,9.1
2023-04-10T06:15:25.669Z,9.6
2023-04-10T06:20:31.740Z,9.6
2023-04-10T06:25:20.851Z,9.3
2023-04-10T06:30:26.886Z,9.3
2023-04-10T06:35:32.920Z,11.2
2023-04-10T06:40:23.558Z,11.7
2023-04-10T06:45:28.234Z,11.2
2023-04-10T06:50:17.104Z,11.2
2023-04-10T06:55:24.114Z,11.5
2023-04-10T07:00:30.746Z,11.7
2023-04-10T07:05:17.556Z,11.1
2023-04-10T07:10:23.772Z,10.7
2023-04-10T07:15:29.810Z,11.1
2023-04-10T07:20:20.231Z,10.7
2023-04-10T07:25:24.944Z,10.6
2023-04-10T07:30:30.939Z,10.7
2023-04-10T07:35:19.933Z,11.4
2023-04-10T07:40:25.447Z,11.2
2023-04-10T07:45:31.427Z,10.7
2023-04-10T07:50:20.451Z,10.2
2023-04-10T07:55:26.408Z,9.7
2023-04-10T08:00:36.441Z,10.4
2023-04-10T08:05:21.808Z,8.8
2023-04-10T08:10:27.968Z,8.5
2023-04-10T08:15:16.982Z,7.9
2023-04-10T08:20:24.081Z,9.0
2023-04-10T08:25:29.043Z,7.1
2023-04-10T08:30:18.016Z,6.6
2023-04-10T08:35:24.207Z,6.5
2023-04-10T08:40:29.636Z,6.6
2023-04-10T08:45:18.603Z,6.4
2023-04-10T08:50:24.805Z,6.3
2023-04-10T08:55:31.046Z,5.8
2023-04-10T09:01:26.558Z,5.9
2023-04-10T09:05:26.116Z,5.6
2023-04-10T09:10:32.210Z,4.9
2023-04-10T09:15:21.351Z,6.0
2023-04-10T09:20:27.455Z,7.3
2023-04-10T09:25:17.589Z,6.2
2023-04-10T09:30:22.376Z,5.7
2023-04-10T09:35:28.787Z,5.3
2023-04-10T09:40:17.167Z,6.9
2023-04-10T09:45:23.255Z,4.9
2023-04-10T09:50:30.936Z,5.2
2023-04-10T09:55:18.344Z,5.5
2023-04-10T10:00:27.630Z,5.3
2023-04-10T10:05:30.501Z,5.4
2023-04-10T10:10:18.746Z,4.9
2023-04-10T10:15:24.827Z,5.0
2023-04-10T10:20:35.227Z,4.6
2023-04-10T10:25:20.049Z,5.2
2023-04-10T10:30:30.014Z,5.0
2023-04-10T10:35:31.942Z,4.9
2023-04-10T10:40:21.999Z,4.6
2023-04-10T10:45:26.898Z,5.3
2023-04-10T10:50:33.024Z,5.5
2023-04-10T10:55:21.975Z,5.4
2023-04-10T11:00:28.850Z,5.7
2023-04-10T11:05:16.170Z,9.0
2023-04-10T11:10:22.402Z,4.2
2023-04-10T11:15:28.404Z,5.5
2023-04-10T11:20:18.506Z,4.3
2023-04-10T11:25:23.713Z,4.6
2023-04-10T11:30:29.675Z,4.8
2023-04-10T11:35:18.999Z,5.4
2023-04-10T11:40:25.409Z,5.1
2023-04-10T11:45:30.438Z,4.2
2023-04-10T11:50:19.278Z,4.9
2023-04-10T11:55:25.475Z,4.3
2023-04-10T12:00:38.793Z,5.4
2023-04-10T12:05:21.674Z,10.8
2023-04-10T12:10:27.584Z,9.8
2023-04-10T12:15:32.841Z,3.9
2023-04-10T12:20:22.830Z,3.7
2023-04-10T12:25:28.141Z,4.5
2023-04-10T12:30:17.131Z,7.0
2023-04-10T12:35:23.128Z,4.4
2023-04-10T12:40:28.548Z,3.9
2023-04-10T12:45:17.508Z,3.9
2023-04-10T12:50:23.750Z,3.8
2023-04-10T12:55:29.709Z,3.8
2023-04-10T13:00:20.259Z,3.7
2023-04-10T13:05:25.262Z,3.8
2023-04-10T13:10:31.270Z,3.7
2023-04-10T13:15:20.217Z,3.9
2023-04-10T13:20:26.705Z,3.8
2023-04-10T13:25:32.313Z,3.8
2023-04-10T13:30:21.887Z,4.2
2023-04-10T13:35:27.348Z,4.0
2023-04-10T13:40:33.236Z,3.8
2023-04-10T13:45:22.060Z,3.7
2023-04-10T13:50:28.177Z,3.7
2023-04-10T13:55:17.368Z,3.6
2023-04-10T14:00:28.190Z,3.8
2023-04-10T14:05:30.009Z,4.1
2023-04-10T14:10:17.936Z,4.0
2023-04-10T14:15:23.712Z,4.0
2023-04-10T14:20:29.776Z,3.8
2023-04-10T14:25:18.987Z,3.8
2023-04-10T14:30:25.125Z,3.7
2023-04-10T14:35:31.177Z,3.7
2023-04-10T14:40:21.554Z,4.3
2023-04-10T14:45:25.840Z,4.1
2023-04-10T14:50:31.855Z,3.9
2023-04-10T14:55:20.785Z,4.0
2023-04-10T15:00:28.304Z,4.3
2023-04-10T15:05:33.193Z,3.5
2023-04-10T15:10:22.244Z,5.0
2023-04-10T15:15:28.257Z,4.0
2023-04-10T15:20:17.221Z,4.1
2023-04-10T15:25:23.410Z,4.1
2023-04-10T15:30:29.410Z,3.5
2023-04-10T15:35:18.463Z,3.9
2023-04-10T15:40:25.826Z,3.9
2023-04-10T15:45:30.280Z,3.9
2023-04-10T15:50:19.288Z,3.9
2023-04-10T15:55:25.335Z,4.1
2023-04-10T16:00:36.307Z,3.9
2023-04-10T16:05:20.085Z,3.5
2023-04-10T16:10:26.041Z,3.6
2023-04-10T16:15:32.221Z,3.5
2023-04-10T16:20:22.789Z,3.4
2023-04-10T16:25:28.846Z,3.5
2023-04-10T16:30:33.198Z,3.3
2023-04-10T16:35:22.244Z,4.9
2023-04-10T16:40:28.264Z,3.8
2023-04-10T16:45:16.968Z,4.5
2023-04-10T16:50:22.900Z,8.5
2023-04-10T16:55:29.078Z,4.0
2023-04-10T17:00:20.600Z,9.5
2023-04-10T17:05:23.327Z,6.4
2023-04-10T17:10:29.541Z,4.6
2023-04-10T17:15:18.425Z,3.4
2023-04-10T17:20:25.849Z,5.2
2023-04-10T17:25:30.796Z,4.5
2023-04-10T17:30:19.776Z,7.7
2023-04-10T17:35:25.841Z,4.1
2023-04-10T17:40:32.002Z,3.7
2023-04-10T17:45:20.580Z,3.0
2023-04-10T17:50:26.817Z,3.2
2023-04-10T17:55:32.882Z,3.0
2023-04-10T18:00:26.390Z,2.9
2023-04-10T18:05:28.248Z,38.2
2023-04-10T18:10:17.127Z,23.9
2023-04-10T18:15:23.452Z,6.3
2023-04-10T18:20:29.445Z,9.5
2023-04-10T18:25:18.456Z,6.1
2023-04-10T18:30:24.369Z,8.4
2023-04-10T18:35:31.444Z,4.0
2023-04-10T18:40:19.048Z,3.3
2023-04-10T18:45:24.884Z,3.4
2023-04-10T18:50:31.093Z,3.1
2023-04-10T18:55:19.996Z,3.0
2023-04-10T19:00:27.540Z,3.5
2023-04-10T19:05:31.229Z,3.6
2023-04-10T19:10:20.463Z,3.1
2023-04-10T19:15:26.370Z,3.0
2023-04-10T19:20:50.586Z,3.2
2023-04-10T19:25:21.462Z,3.7
2023-04-10T19:30:27.658Z,3.0
2023-04-10T19:35:16.546Z,4.1
2023-04-10T19:40:23.048Z,4.1
2023-04-10T19:45:28.326Z,3.5
2023-04-10T19:50:17.498Z,3.1
2023-04-10T19:55:23.571Z,3.1
2023-04-10T20:00:32.732Z,43.0
2023-04-10T20:05:18.821Z,37.8
2023-04-10T20:10:25.665Z,20.2
2023-04-10T20:15:31.123Z,3.3
2023-04-10T20:20:21.235Z,3.4
2023-04-10T20:25:26.017Z,3.6
2023-04-10T20:30:32.109Z,3.7
2023-04-10T20:35:21.169Z,5.0
2023-04-10T20:40:27.287Z,3.5
2023-04-10T20:45:32.976Z,3.5
2023-04-10T20:50:22.040Z,3.4
2023-04-10T20:55:28.241Z,4.1
2023-04-10T21:00:19.023Z,6.7
2023-04-10T21:05:22.757Z,4.7
2023-04-10T21:10:28.746Z,3.4
2023-04-10T21:15:17.758Z,3.5
2023-04-10T21:20:25.334Z,3.5
2023-04-10T21:25:29.978Z,3.6
2023-04-10T21:30:18.873Z,3.4
2023-04-10T21:35:25.040Z,3.6
2023-04-10T21:40:31.145Z,3.6
2023-04-10T21:45:19.812Z,3.3
2023-04-10T21:50:25.956Z,3.8
2023-04-10T21:55:32.044Z,3.5
2023-04-10T22:00:26.822Z,3.4
2023-04-10T22:05:26.473Z,3.2
2023-04-10T22:10:32.940Z,3.6
2023-04-10T22:15:21.347Z,3.9
2023-04-10T22:20:30.385Z,3.7
2023-04-10T22:25:16.439Z,3.6
2023-04-10T22:30:24.323Z,3.1
2023-04-10T22:35:28.543Z,3.6
2023-04-10T22:40:18.345Z,3.3
2023-04-10T22:45:24.301Z,3.3
2023-04-10T22:50:30.165Z,3.2
2023-04-10T22:55:19.271Z,3.5
2023-04-10T23:00:28.269Z,3.3
2023-04-10T23:05:30.484Z,3.4
2023-04-10T23:10:19.596Z,3.3
2023-04-10T23:15:25.691Z,3.1
2023-04-10T23:20:32.571Z,3.1
2023-04-10T23:25:20.856Z,3.3
2023-04-10T23:30:26.753Z,3.3
2023-04-10T23:35:32.821Z,3.4
2023-04-10T23:40:23.231Z,3.7
2023-04-10T23:45:28.431Z,3.2
2023-04-10T23:50:16.593Z,3.3
2023-04-10T23:55:22.646Z,3.2
